sensor_id;sensor_type;location;lat;lon;timestamp;P1;durP1;ratioP1;P2;durP2;ratioP2
37647;SDS011;23490;53.656;10.076;2022-08-02T09:30:48;7.00;;;1.88;;
37647;SDS011;23490;53.656;10.076;2022-08-02T09:33:22;7.47;;;1.50;;
37647;SDS011;23490;53.656;10.076;2022-08-02T09:35:57;5.47;;;1.95;;
37647;SDS011;23490;53.656;10.076;2022-08-02T09:38:24;5.60;;;1.40;;
37647;SDS011;23490;53.656;10.076;2022-08-02T09:40:49;6.00;;;1.10;;
37647;SDS011;23490;53.656;10.076;2022-08-02T09:43:15;4.80;;;1.38;;
37647;SDS011;23490;53.656;10.076;2022-08-02T09:45:41;4.82;;;1.20;;
37647;SDS011;23490;53.656;10.076;2022-08-02T09:48:07;6.03;;;1.67;;
37647;SDS011;23490;53.656;10.076;2022-08-02T09:50:34;5.78;;;1.30;;
37647;SDS011;23490;53.656;10.076;2022-08-02T09:53:01;6.57;;;1.38;;
37647;SDS011;23490;53.656;10.076;2022-08-02T09:55:27;4.38;;;1.30;;
37647;SDS011;23490;53.656;10.076;2022-08-02T09:57:53;6.88;;;1.92;;
37647;SDS011;23490;53.656;10.076;2022-08-02T10:00:18;5.13;;;1.33;;
37647;SDS011;23490;53.656;10.076;2022-08-02T10:05:48;3.75;;;1.50;;
37647;SDS011;23490;53.656;10.076;2022-08-02T10:08:15;3.40;;;1.48;;
37647;SDS011;23490;53.656;10.076;2022-08-02T10:10:41;10.20;;;1.65;;
37647;SDS011;23490;53.656;10.076;2022-08-02T10:13:07;3.78;;;1.20;;
37647;SDS011;23490;53.656;10.076;2022-08-02T10:15:34;6.05;;;1.63;;
37647;SDS011;23490;53.656;10.076;2022-08-02T10:18:01;5.90;;;1.60;;
37647;SDS011;23490;53.656;10.076;2022-08-02T10:20:29;7.35;;;1.95;;
37647;SDS011;23490;53.656;10.076;2022-08-02T10:22:56;4.50;;;1.33;;
37647;SDS011;23490;53.656;10.076;2022-08-02T10:25:24;7.10;;;1.80;;
37647;SDS011;23490;53.656;10.076;2022-08-02T10:27:51;8.65;;;1.60;;
37647;SDS011;23490;53.656;10.076;2022-08-02T10:30:17;5.20;;;1.40;;
37647;SDS011;23490;53.656;10.076;2022-08-02T10:32:42;6.90;;;2.00;;
37647;SDS011;23490;53.656;10.076;2022-08-02T10:35:14;6.85;;;1.55;;
37647;SDS011;23490;53.656;10.076;2022-08-02T10:37:43;7.15;;;1.88;;
37647;SDS011;23490;53.656;10.076;2022-08-02T10:40:10;7.47;;;1.73;;
37647;SDS011;23490;53.656;10.076;2022-08-02T10:42:56;4.80;;;1.40;;
37647;SDS011;23490;53.656;10.076;2022-08-02T10:45:24;5.90;;;1.60;;
37647;SDS011;23490;53.656;10.076;2022-08-02T10:47:56;8.50;;;1.67;;
37647;SDS011;23490;53.656;10.076;2022-08-02T10:53:23;5.83;;;1.77;;
37647;SDS011;23490;53.656;10.076;2022-08-02T10:55:53;3.40;;;1.23;;
37647;SDS011;23490;53.656;10.076;2022-08-02T10:58:21;5.15;;;1.35;;
37647;SDS011;23490;53.656;10.076;2022-08-02T11:00:48;4.55;;;1.30;;
37647;SDS011;23490;53.656;10.076;2022-08-02T11:06:01;3.67;;;1.60;;
37647;SDS011;23490;53.656;10.076;2022-08-02T11:08:32;3.78;;;1.40;;
37647;SDS011;23490;53.656;10.076;2022-08-02T11:10:59;4.68;;;1.42;;
37647;SDS011;23490;53.656;10.076;2022-08-02T11:13:25;7.22;;;1.40;;
37647;SDS011;23490;53.656;10.076;2022-08-02T11:21:25;4.30;;;1.13;;
37647;SDS011;23490;53.656;10.076;2022-08-02T11:23:52;4.23;;;1.57;;
37647;SDS011;23490;53.656;10.076;2022-08-02T11:28:53;4.63;;;1.17;;
37647;SDS011;23490;53.656;10.076;2022-08-02T11:31:19;5.38;;;1.42;;
37647;SDS011;23490;53.656;10.076;2022-08-02T11:33:47;3.75;;;1.30;;
37647;SDS011;23490;53.656;10.076;2022-08-02T11:36:13;4.47;;;1.30;;
37647;SDS011;23490;53.656;10.076;2022-08-02T11:38:40;5.68;;;1.38;;
37647;SDS011;23490;53.656;10.076;2022-08-02T11:41:05;6.72;;;1.23;;
37647;SDS011;23490;53.656;10.076;2022-08-02T11:43:31;4.70;;;1.17;;
37647;SDS011;23490;53.656;10.076;2022-08-02T11:45:57;3.30;;;1.15;;
37647;SDS011;23490;53.656;10.076;2022-08-02T11:48:31;4.28;;;1.13;;
37647;SDS011;23490;53.656;10.076;2022-08-02T11:51:08;3.95;;;1.20;;
37647;SDS011;23490;53.656;10.076;2022-08-02T11:53:53;7.15;;;1.55;;
37647;SDS011;23490;53.656;10.076;2022-08-02T11:56:27;4.18;;;1.10;;
37647;SDS011;23490;53.656;10.076;2022-08-02T11:59:01;4.93;;;1.30;;
37647;SDS011;23490;53.656;10.076;2022-08-02T12:01:27;3.63;;;1.45;;
37647;SDS011;23490;53.656;10.076;2022-08-02T12:03:53;3.92;;;1.38;;
37647;SDS011;23490;53.656;10.076;2022-08-02T12:06:23;2.38;;;1.00;;
37647;SDS011;23490;53.656;10.076;2022-08-02T12:08:49;4.10;;;1.17;;
37647;SDS011;23490;53.656;10.076;2022-08-02T12:11:17;2.88;;;0.95;;
37647;SDS011;23490;53.656;10.076;2022-08-02T12:13:44;3.70;;;1.45;;
37647;SDS011;23490;53.656;10.076;2022-08-02T12:16:11;4.10;;;1.88;;
37647;SDS011;23490;53.656;10.076;2022-08-02T12:18:56;4.60;;;1.35;;
37647;SDS011;23490;53.656;10.076;2022-08-02T12:21:40;7.13;;;1.73;;
37647;SDS011;23490;53.656;10.076;2022-08-02T12:24:05;5.82;;;1.60;;
37647;SDS011;23490;53.656;10.076;2022-08-02T12:26:39;7.18;;;1.30;;
37647;SDS011;23490;53.656;10.076;2022-08-02T12:29:06;6.15;;;1.65;;
37647;SDS011;23490;53.656;10.076;2022-08-02T12:31:44;6.18;;;1.23;;
37647;SDS011;23490;53.656;10.076;2022-08-02T12:34:15;4.47;;;1.20;;
37647;SDS011;23490;53.656;10.076;2022-08-02T12:36:43;5.15;;;1.35;;
37647;SDS011;23490;53.656;10.076;2022-08-02T12:39:20;3.95;;;1.30;;
37647;SDS011;23490;53.656;10.076;2022-08-02T12:41:56;3.83;;;1.13;;
37647;SDS011;23490;53.656;10.076;2022-08-02T12:44:22;3.95;;;1.30;;
37647;SDS011;23490;53.656;10.076;2022-08-02T12:46:56;4.97;;;1.50;;
37647;SDS011;23490;53.656;10.076;2022-08-02T12:49:23;3.92;;;1.35;;
37647;SDS011;23490;53.656;10.076;2022-08-02T12:51:48;7.13;;;1.60;;
37647;SDS011;23490;53.656;10.076;2022-08-02T12:54:17;3.03;;;1.25;;
37647;SDS011;23490;53.656;10.076;2022-08-02T12:56:45;4.15;;;1.40;;
37647;SDS011;23490;53.656;10.076;2022-08-02T12:59:11;3.22;;;1.02;;
37647;SDS011;23490;53.656;10.076;2022-08-02T13:01:38;3.25;;;1.67;;
37647;SDS011;23490;53.656;10.076;2022-08-02T13:04:03;3.47;;;1.40;;
37647;SDS011;23490;53.656;10.076;2022-08-02T13:06:29;3.78;;;1.70;;
37647;SDS011;23490;53.656;10.076;2022-08-02T13:08:55;5.65;;;1.23;;
37647;SDS011;23490;53.656;10.076;2022-08-02T13:11:22;4.13;;;1.45;;
37647;SDS011;23490;53.656;10.076;2022-08-02T13:13:49;5.45;;;1.40;;
37647;SDS011;23490;53.656;10.076;2022-08-02T13:16:14;4.00;;;1.35;;
37647;SDS011;23490;53.656;10.076;2022-08-02T13:18:39;2.88;;;1.20;;
37647;SDS011;23490;53.656;10.076;2022-08-02T13:21:05;5.68;;;1.33;;
37647;SDS011;23490;53.656;10.076;2022-08-02T13:23:32;2.83;;;1.30;;
37647;SDS011;23490;53.656;10.076;2022-08-02T13:25:59;2.25;;;1.20;;
37647;SDS011;23490;53.656;10.076;2022-08-02T13:28:24;3.55;;;1.33;;
37647;SDS011;23490;53.656;10.076;2022-08-02T13:30:50;4.75;;;1.02;;
37647;SDS011;23490;53.656;10.076;2022-08-02T13:33:15;5.07;;;1.20;;
37647;SDS011;23490;53.656;10.076;2022-08-02T13:35:42;2.95;;;1.52;;
37647;SDS011;23490;53.656;10.076;2022-08-02T13:38:08;2.80;;;1.40;;
37647;SDS011;23490;53.656;10.076;2022-08-02T13:40:33;3.17;;;1.15;;
37647;SDS011;23490;53.656;10.076;2022-08-02T13:42:59;2.20;;;0.98;;
37647;SDS011;23490;53.656;10.076;2022-08-02T13:45:24;2.78;;;1.08;;
37647;SDS011;23490;53.656;10.076;2022-08-02T13:47:49;2.47;;;0.93;;
37647;SDS011;23490;53.656;10.076;2022-08-02T13:50:15;5.90;;;1.35;;
37647;SDS011;23490;53.656;10.076;2022-08-02T13:52:40;4.00;;;1.40;;
37647;SDS011;23490;53.656;10.076;2022-08-02T13:55:06;2.00;;;1.02;;
37647;SDS011;23490;53.656;10.076;2022-08-02T13:57:32;4.93;;;1.48;;
37647;SDS011;23490;53.656;10.076;2022-08-02T13:59:57;3.28;;;1.23;;
37647;SDS011;23490;53.656;10.076;2022-08-02T14:02:22;2.58;;;1.20;;
37647;SDS011;23490;53.656;10.076;2022-08-02T14:04:48;3.65;;;1.10;;
37647;SDS011;23490;53.656;10.076;2022-08-02T14:07:13;2.85;;;1.25;;
37647;SDS011;23490;53.656;10.076;2022-08-02T14:09:40;2.42;;;1.08;;
37647;SDS011;23490;53.656;10.076;2022-08-02T14:12:05;2.92;;;0.98;;
37647;SDS011;23490;53.656;10.076;2022-08-02T14:14:31;3.45;;;1.10;;
37647;SDS011;23490;53.656;10.076;2022-08-02T14:16:57;3.88;;;1.60;;
37647;SDS011;23490;53.656;10.076;2022-08-02T14:19:22;2.70;;;1.30;;
37647;SDS011;23490;53.656;10.076;2022-08-02T14:21:48;3.03;;;1.25;;
37647;SDS011;23490;53.656;10.076;2022-08-02T14:24:15;3.10;;;1.33;;
37647;SDS011;23490;53.656;10.076;2022-08-02T14:26:41;5.35;;;1.40;;
37647;SDS011;23490;53.656;10.076;2022-08-02T14:29:07;2.22;;;1.10;;
37647;SDS011;23490;53.656;10.076;2022-08-02T14:31:32;3.90;;;1.38;;
37647;SDS011;23490;53.656;10.076;2022-08-02T14:33:58;4.43;;;1.30;;
37647;SDS011;23490;53.656;10.076;2022-08-02T14:36:23;5.03;;;1.20;;
37647;SDS011;23490;53.656;10.076;2022-08-02T14:38:48;3.50;;;1.30;;
37647;SDS011;23490;53.656;10.076;2022-08-02T14:41:14;3.42;;;1.23;;
37647;SDS011;23490;53.656;10.076;2022-08-02T14:43:39;4.82;;;1.33;;
37647;SDS011;23490;53.656;10.076;2022-08-02T14:46:23;3.83;;;1.10;;
37647;SDS011;23490;53.656;10.076;2022-08-02T14:48:48;3.90;;;1.55;;
37647;SDS011;23490;53.656;10.076;2022-08-02T14:51:14;5.60;;;2.22;;
37647;SDS011;23490;53.656;10.076;2022-08-02T14:53:40;5.35;;;1.23;;
37647;SDS011;23490;53.656;10.076;2022-08-02T14:56:06;4.38;;;1.48;;
37647;SDS011;23490;53.656;10.076;2022-08-02T14:58:31;2.33;;;1.10;;
37647;SDS011;23490;53.656;10.076;2022-08-02T15:00:57;2.70;;;1.33;;
37647;SDS011;23490;53.656;10.076;2022-08-02T15:03:22;3.65;;;1.55;;
37647;SDS011;23490;53.656;10.076;2022-08-02T15:05:48;3.45;;;1.40;;
37647;SDS011;23490;53.656;10.076;2022-08-02T15:08:14;4.00;;;1.20;;
37647;SDS011;23490;53.656;10.076;2022-08-02T15:10:39;2.75;;;1.30;;
37647;SDS011;23490;53.656;10.076;2022-08-02T15:13:04;4.50;;;1.30;;
37647;SDS011;23490;53.656;10.076;2022-08-02T15:15:30;4.85;;;1.25;;
37647;SDS011;23490;53.656;10.076;2022-08-02T15:17:56;4.22;;;1.52;;
37647;SDS011;23490;53.656;10.076;2022-08-02T15:20:21;2.58;;;1.23;;
37647;SDS011;23490;53.656;10.076;2022-08-02T15:22:47;3.42;;;1.40;;
37647;SDS011;23490;53.656;10.076;2022-08-02T15:25:12;3.83;;;1.60;;
37647;SDS011;23490;53.656;10.076;2022-08-02T15:27:37;1.75;;;1.02;;
37647;SDS011;23490;53.656;10.076;2022-08-02T15:30:03;3.45;;;1.48;;
37647;SDS011;23490;53.656;10.076;2022-08-02T15:32:29;4.57;;;1.73;;
37647;SDS011;23490;53.656;10.076;2022-08-02T15:34:54;5.00;;;1.30;;
37647;SDS011;23490;53.656;10.076;2022-08-02T15:37:20;2.80;;;1.48;;
37647;SDS011;23490;53.656;10.076;2022-08-02T15:39:45;3.10;;;1.60;;
37647;SDS011;23490;53.656;10.076;2022-08-02T15:42:10;3.50;;;1.45;;
37647;SDS011;23490;53.656;10.076;2022-08-02T15:44:36;3.80;;;1.42;;
37647;SDS011;23490;53.656;10.076;2022-08-02T15:47:03;6.43;;;1.42;;
37647;SDS011;23490;53.656;10.076;2022-08-02T15:49:30;3.33;;;1.40;;
37647;SDS011;23490;53.656;10.076;2022-08-02T15:51:55;3.08;;;1.73;;
37647;SDS011;23490;53.656;10.076;2022-08-02T15:54:21;4.88;;;1.95;;
37647;SDS011;23490;53.656;10.076;2022-08-02T15:56:46;2.55;;;1.48;;
37647;SDS011;23490;53.656;10.076;2022-08-02T15:59:12;4.28;;;1.77;;
37647;SDS011;23490;53.656;10.076;2022-08-02T16:01:37;2.70;;;1.42;;
37647;SDS011;23490;53.656;10.076;2022-08-02T16:04:03;2.95;;;1.50;;
37647;SDS011;23490;53.656;10.076;2022-08-02T16:06:30;5.03;;;1.70;;
37647;SDS011;23490;53.656;10.076;2022-08-02T16:08:55;2.85;;;1.60;;
37647;SDS011;23490;53.656;10.076;2022-08-02T16:11:21;3.15;;;1.42;;
37647;SDS011;23490;53.656;10.076;2022-08-02T16:13:46;3.42;;;1.85;;
37647;SDS011;23490;53.656;10.076;2022-08-02T16:16:14;4.93;;;1.70;;
37647;SDS011;23490;53.656;10.076;2022-08-02T16:18:40;5.43;;;2.60;;
37647;SDS011;23490;53.656;10.076;2022-08-02T16:21:06;15.25;;;7.25;;
37647;SDS011;23490;53.656;10.076;2022-08-02T16:23:31;6.43;;;3.28;;
37647;SDS011;23490;53.656;10.076;2022-08-02T16:25:56;5.15;;;2.60;;
37647;SDS011;23490;53.656;10.076;2022-08-02T16:28:22;5.25;;;1.63;;
37647;SDS011;23490;53.656;10.076;2022-08-02T16:30:47;3.40;;;1.80;;
37647;SDS011;23490;53.656;10.076;2022-08-02T16:33:12;4.45;;;1.70;;
37647;SDS011;23490;53.656;10.076;2022-08-02T16:35:38;4.07;;;1.90;;
37647;SDS011;23490;53.656;10.076;2022-08-02T16:38:04;2.90;;;1.58;;
37647;SDS011;23490;53.656;10.076;2022-08-02T16:40:30;4.95;;;1.77;;
37647;SDS011;23490;53.656;10.076;2022-08-02T16:42:58;5.38;;;1.70;;
37647;SDS011;23490;53.656;10.076;2022-08-02T16:45:23;2.38;;;1.52;;
37647;SDS011;23490;53.656;10.076;2022-08-02T16:47:49;3.40;;;1.60;;
37647;SDS011;23490;53.656;10.076;2022-08-02T16:50:14;3.70;;;1.80;;
37647;SDS011;23490;53.656;10.076;2022-08-02T16:52:41;5.25;;;2.17;;
37647;SDS011;23490;53.656;10.076;2022-08-02T16:55:06;6.80;;;2.60;;
37647;SDS011;23490;53.656;10.076;2022-08-02T16:57:32;5.13;;;2.65;;
37647;SDS011;23490;53.656;10.076;2022-08-02T17:00:00;7.30;;;3.20;;
37647;SDS011;23490;53.656;10.076;2022-08-02T17:02:25;7.13;;;3.90;;
37647;SDS011;23490;53.656;10.076;2022-08-02T17:04:51;6.30;;;3.85;;
37647;SDS011;23490;53.656;10.076;2022-08-02T17:07:16;5.78;;;2.53;;
37647;SDS011;23490;53.656;10.076;2022-08-02T17:09:41;2.70;;;1.90;;
37647;SDS011;23490;53.656;10.076;2022-08-02T17:12:07;5.97;;;1.80;;
37647;SDS011;23490;53.656;10.076;2022-08-02T17:14:32;3.70;;;2.00;;
37647;SDS011;23490;53.656;10.076;2022-08-02T17:17:01;6.63;;;1.98;;
37647;SDS011;23490;53.656;10.076;2022-08-02T17:19:26;3.67;;;1.63;;
37647;SDS011;23490;53.656;10.076;2022-08-02T17:21:52;4.97;;;1.92;;
37647;SDS011;23490;53.656;10.076;2022-08-02T17:24:17;3.13;;;1.48;;
37647;SDS011;23490;53.656;10.076;2022-08-02T17:26:42;3.35;;;1.52;;
37647;SDS011;23490;53.656;10.076;2022-08-02T17:29:08;3.15;;;1.55;;
37647;SDS011;23490;53.656;10.076;2022-08-02T17:31:33;4.25;;;1.60;;
37647;SDS011;23490;53.656;10.076;2022-08-02T17:33:59;2.92;;;1.77;;
37647;SDS011;23490;53.656;10.076;2022-08-02T17:36:24;2.70;;;1.60;;
37647;SDS011;23490;53.656;10.076;2022-08-02T17:38:50;3.05;;;1.88;;
37647;SDS011;23490;53.656;10.076;2022-08-02T17:41:15;3.90;;;1.70;;
37647;SDS011;23490;53.656;10.076;2022-08-02T17:43:40;5.10;;;1.55;;
37647;SDS011;23490;53.656;10.076;2022-08-02T17:46:06;3.45;;;2.00;;
37647;SDS011;23490;53.656;10.076;2022-08-02T17:48:31;4.07;;;1.70;;
37647;SDS011;23490;53.656;10.076;2022-08-02T17:51:16;2.80;;;1.38;;
37647;SDS011;23490;53.656;10.076;2022-08-02T17:53:42;4.85;;;1.85;;
37647;SDS011;23490;53.656;10.076;2022-08-02T17:56:07;4.25;;;1.55;;
37647;SDS011;23490;53.656;10.076;2022-08-02T17:58:32;4.32;;;1.58;;
37647;SDS011;23490;53.656;10.076;2022-08-02T18:00:58;4.07;;;2.00;;
37647;SDS011;23490;53.656;10.076;2022-08-02T18:03:23;2.75;;;1.73;;
37647;SDS011;23490;53.656;10.076;2022-08-02T18:05:48;2.97;;;1.50;;
37647;SDS011;23490;53.656;10.076;2022-08-02T18:08:14;7.72;;;2.28;;
37647;SDS011;23490;53.656;10.076;2022-08-02T18:10:39;4.85;;;1.90;;
37647;SDS011;23490;53.656;10.076;2022-08-02T18:13:04;2.50;;;1.40;;
37647;SDS011;23490;53.656;10.076;2022-08-02T18:15:30;5.07;;;1.80;;
37647;SDS011;23490;53.656;10.076;2022-08-02T18:17:56;3.45;;;1.70;;
37647;SDS011;23490;53.656;10.076;2022-08-02T18:20:21;3.88;;;1.83;;
37647;SDS011;23490;53.656;10.076;2022-08-02T18:22:47;4.95;;;1.77;;
37647;SDS011;23490;53.656;10.076;2022-08-02T18:25:12;4.75;;;1.90;;
37647;SDS011;23490;53.656;10.076;2022-08-02T18:27:37;3.42;;;1.95;;
37647;SDS011;23490;53.656;10.076;2022-08-02T18:30:03;6.20;;;2.13;;
37647;SDS011;23490;53.656;10.076;2022-08-02T18:32:28;2.95;;;1.52;;
37647;SDS011;23490;53.656;10.076;2022-08-02T18:34:55;3.28;;;1.77;;
37647;SDS011;23490;53.656;10.076;2022-08-02T18:37:24;4.20;;;2.10;;
37647;SDS011;23490;53.656;10.076;2022-08-02T18:39:49;4.55;;;1.90;;
37647;SDS011;23490;53.656;10.076;2022-08-02T18:42:15;3.80;;;1.83;;
37647;SDS011;23490;53.656;10.076;2022-08-02T18:44:40;2.80;;;1.73;;
37647;SDS011;23490;53.656;10.076;2022-08-02T18:47:07;3.45;;;1.80;;
37647;SDS011;23490;53.656;10.076;2022-08-02T18:49:32;4.07;;;2.50;;
37647;SDS011;23490;53.656;10.076;2022-08-02T18:51:57;5.65;;;3.70;;
37647;SDS011;23490;53.656;10.076;2022-08-02T18:54:24;3.70;;;2.38;;
37647;SDS011;23490;53.656;10.076;2022-08-02T18:56:50;5.30;;;2.90;;
37647;SDS011;23490;53.656;10.076;2022-08-02T18:59:16;4.00;;;2.45;;
37647;SDS011;23490;53.656;10.076;2022-08-02T19:01:43;4.70;;;2.20;;
37647;SDS011;23490;53.656;10.076;2022-08-02T19:04:08;6.15;;;2.47;;
37647;SDS011;23490;53.656;10.076;2022-08-02T19:06:34;3.75;;;1.98;;
37647;SDS011;23490;53.656;10.076;2022-08-02T19:09:00;3.28;;;1.70;;
37647;SDS011;23490;53.656;10.076;2022-08-02T19:11:25;4.88;;;2.00;;
37647;SDS011;23490;53.656;10.076;2022-08-02T19:13:51;4.32;;;2.08;;
37647;SDS011;23490;53.656;10.076;2022-08-02T19:16:17;5.43;;;2.58;;
37647;SDS011;23490;53.656;10.076;2022-08-02T19:18:43;4.10;;;1.67;;
37647;SDS011;23490;53.656;10.076;2022-08-02T19:21:08;3.60;;;2.05;;
37647;SDS011;23490;53.656;10.076;2022-08-02T19:23:34;5.10;;;1.90;;
37647;SDS011;23490;53.656;10.076;2022-08-02T19:25:59;3.65;;;2.00;;
37647;SDS011;23490;53.656;10.076;2022-08-02T19:28:25;6.70;;;2.00;;
37647;SDS011;23490;53.656;10.076;2022-08-02T19:30:51;4.05;;;1.95;;
37647;SDS011;23490;53.656;10.076;2022-08-02T19:33:17;4.45;;;1.98;;
37647;SDS011;23490;53.656;10.076;2022-08-02T19:35:42;3.25;;;1.85;;
37647;SDS011;23490;53.656;10.076;2022-08-02T19:38:08;3.55;;;2.00;;
37647;SDS011;23490;53.656;10.076;2022-08-02T19:40:35;7.25;;;2.10;;
37647;SDS011;23490;53.656;10.076;2022-08-02T19:43:02;2.75;;;1.65;;
37647;SDS011;23490;53.656;10.076;2022-08-02T19:45:28;4.03;;;1.80;;
37647;SDS011;23490;53.656;10.076;2022-08-02T19:47:53;3.05;;;1.83;;
37647;SDS011;23490;53.656;10.076;2022-08-02T19:50:18;4.97;;;2.30;;
37647;SDS011;23490;53.656;10.076;2022-08-02T19:52:44;5.20;;;2.13;;
37647;SDS011;23490;53.656;10.076;2022-08-02T19:55:10;4.95;;;2.10;;
37647;SDS011;23490;53.656;10.076;2022-08-02T19:57:36;5.97;;;1.95;;
37647;SDS011;23490;53.656;10.076;2022-08-02T20:00:05;5.05;;;2.50;;
37647;SDS011;23490;53.656;10.076;2022-08-02T20:02:33;2.83;;;2.00;;
37647;SDS011;23490;53.656;10.076;2022-08-02T20:04:58;4.85;;;1.85;;
37647;SDS011;23490;53.656;10.076;2022-08-02T20:07:24;4.63;;;1.90;;
37647;SDS011;23490;53.656;10.076;2022-08-02T20:09:50;5.97;;;1.90;;
37647;SDS011;23490;53.656;10.076;2022-08-02T20:12:17;4.05;;;2.33;;
37647;SDS011;23490;53.656;10.076;2022-08-02T20:14:42;5.35;;;2.20;;
37647;SDS011;23490;53.656;10.076;2022-08-02T20:17:08;3.45;;;2.20;;
37647;SDS011;23490;53.656;10.076;2022-08-02T20:19:39;4.50;;;2.08;;
37647;SDS011;23490;53.656;10.076;2022-08-02T20:22:05;4.10;;;2.15;;
37647;SDS011;23490;53.656;10.076;2022-08-02T20:24:30;3.92;;;2.22;;
37647;SDS011;23490;53.656;10.076;2022-08-02T20:26:56;5.95;;;2.38;;
37647;SDS011;23490;53.656;10.076;2022-08-02T20:29:21;2.92;;;1.90;;
37647;SDS011;23490;53.656;10.076;2022-08-02T20:31:47;5.45;;;2.45;;
37647;SDS011;23490;53.656;10.076;2022-08-02T20:34:12;5.55;;;2.45;;
37647;SDS011;23490;53.656;10.076;2022-08-02T20:36:38;4.93;;;2.47;;
37647;SDS011;23490;53.656;10.076;2022-08-02T20:39:04;3.60;;;1.95;;
37647;SDS011;23490;53.656;10.076;2022-08-02T20:41:29;6.05;;;2.45;;
37647;SDS011;23490;53.656;10.076;2022-08-02T20:43:56;3.35;;;2.10;;
37647;SDS011;23490;53.656;10.076;2022-08-02T20:46:22;4.00;;;2.08;;
37647;SDS011;23490;53.656;10.076;2022-08-02T20:48:48;5.30;;;2.25;;
37647;SDS011;23490;53.656;10.076;2022-08-02T20:51:15;4.75;;;2.28;;
37647;SDS011;23490;53.656;10.076;2022-08-02T20:53:41;4.63;;;2.13;;
37647;SDS011;23490;53.656;10.076;2022-08-02T20:56:06;4.10;;;2.30;;
37647;SDS011;23490;53.656;10.076;2022-08-02T20:58:32;4.38;;;2.10;;
37647;SDS011;23490;53.656;10.076;2022-08-02T21:00:57;3.30;;;2.45;;
37647;SDS011;23490;53.656;10.076;2022-08-02T21:03:23;5.55;;;2.50;;
37647;SDS011;23490;53.656;10.076;2022-08-02T21:05:48;4.45;;;2.35;;
37647;SDS011;23490;53.656;10.076;2022-08-02T21:08:14;4.90;;;2.40;;
37647;SDS011;23490;53.656;10.076;2022-08-02T21:10:39;5.55;;;2.35;;
37647;SDS011;23490;53.656;10.076;2022-08-02T21:13:05;4.90;;;2.33;;
37647;SDS011;23490;53.656;10.076;2022-08-02T21:15:31;3.80;;;2.60;;
37647;SDS011;23490;53.656;10.076;2022-08-02T21:17:58;4.82;;;2.45;;
37647;SDS011;23490;53.656;10.076;2022-08-02T21:20:23;6.13;;;2.42;;
37647;SDS011;23490;53.656;10.076;2022-08-02T21:22:49;4.22;;;2.28;;
37647;SDS011;23490;53.656;10.076;2022-08-02T21:25:15;5.43;;;2.60;;
37647;SDS011;23490;53.656;10.076;2022-08-02T21:27:46;5.88;;;2.35;;
37647;SDS011;23490;53.656;10.076;2022-08-02T21:30:15;4.93;;;2.58;;
37647;SDS011;23490;53.656;10.076;2022-08-02T21:32:40;3.33;;;2.20;;
37647;SDS011;23490;53.656;10.076;2022-08-02T21:35:07;6.03;;;2.35;;
37647;SDS011;23490;53.656;10.076;2022-08-02T21:37:33;3.78;;;2.30;;
37647;SDS011;23490;53.656;10.076;2022-08-02T21:39:58;4.47;;;2.80;;
37647;SDS011;23490;53.656;10.076;2022-08-02T21:42:23;6.80;;;2.25;;
37647;SDS011;23490;53.656;10.076;2022-08-02T21:44:49;4.45;;;2.55;;
37647;SDS011;23490;53.656;10.076;2022-08-02T21:47:15;5.57;;;2.42;;
37647;SDS011;23490;53.656;10.076;2022-08-02T21:49:49;5.50;;;3.00;;
37647;SDS011;23490;53.656;10.076;2022-08-02T21:52:17;5.82;;;2.55;;
37647;SDS011;23490;53.656;10.076;2022-08-02T21:57:12;6.13;;;3.03;;
37647;SDS011;23490;53.656;10.076;2022-08-02T21:59:38;5.68;;;2.60;;
37647;SDS011;23490;53.656;10.076;2022-08-02T22:02:04;4.82;;;2.67;;
37647;SDS011;23490;53.656;10.076;2022-08-02T22:04:29;7.18;;;2.80;;
37647;SDS011;23490;53.656;10.076;2022-08-02T22:06:55;5.20;;;3.05;;
37647;SDS011;23490;53.656;10.076;2022-08-02T22:09:20;4.68;;;2.53;;
37647;SDS011;23490;53.656;10.076;2022-08-02T22:11:46;4.72;;;2.60;;
37647;SDS011;23490;53.656;10.076;2022-08-02T22:14:11;5.63;;;2.70;;
37647;SDS011;23490;53.656;10.076;2022-08-02T22:16:37;5.70;;;2.88;;
37647;SDS011;23490;53.656;10.076;2022-08-02T22:19:02;4.82;;;2.80;;
37647;SDS011;23490;53.656;10.076;2022-08-02T22:21:28;3.88;;;2.80;;
37647;SDS011;23490;53.656;10.076;2022-08-02T22:23:53;4.22;;;2.90;;
37647;SDS011;23490;53.656;10.076;2022-08-02T22:26:18;4.65;;;2.92;;
37647;SDS011;23490;53.656;10.076;2022-08-02T22:28:44;5.90;;;2.75;;
37647;SDS011;23490;53.656;10.076;2022-08-02T22:31:09;5.10;;;3.40;;
37647;SDS011;23490;53.656;10.076;2022-08-02T22:33:34;4.45;;;2.70;;
37647;SDS011;23490;53.656;10.076;2022-08-02T22:36:18;5.95;;;3.10;;
37647;SDS011;23490;53.656;10.076;2022-08-02T22:38:44;5.40;;;2.88;;
37647;SDS011;23490;53.656;10.076;2022-08-02T22:41:11;6.15;;;2.90;;
37647;SDS011;23490;53.656;10.076;2022-08-02T22:43:37;3.75;;;2.78;;
37647;SDS011;23490;53.656;10.076;2022-08-02T22:46:02;5.70;;;3.00;;
37647;SDS011;23490;53.656;10.076;2022-08-02T22:48:28;4.38;;;2.85;;
37647;SDS011;23490;53.656;10.076;2022-08-02T22:50:53;3.67;;;2.60;;
37647;SDS011;23490;53.656;10.076;2022-08-02T22:53:18;4.20;;;3.10;;
37647;SDS011;23490;53.656;10.076;2022-08-02T22:55:44;5.75;;;3.60;;
37647;SDS011;23490;53.656;10.076;2022-08-02T22:58:09;5.35;;;3.67;;
37647;SDS011;23490;53.656;10.076;2022-08-02T23:00:36;4.72;;;3.08;;
37647;SDS011;23490;53.656;10.076;2022-08-02T23:03:01;5.05;;;3.00;;
37647;SDS011;23490;53.656;10.076;2022-08-02T23:05:27;3.70;;;2.80;;
37647;SDS011;23490;53.656;10.076;2022-08-02T23:07:52;4.10;;;3.03;;
37647;SDS011;23490;53.656;10.076;2022-08-02T23:10:18;3.58;;;2.90;;
37647;SDS011;23490;53.656;10.076;2022-08-02T23:12:43;6.38;;;3.08;;
37647;SDS011;23490;53.656;10.076;2022-08-02T23:15:09;5.25;;;3.08;;
37647;SDS011;23490;53.656;10.076;2022-08-02T23:17:34;5.00;;;2.80;;
37647;SDS011;23490;53.656;10.076;2022-08-02T23:20:18;7.63;;;3.55;;
37647;SDS011;23490;53.656;10.076;2022-08-02T23:22:44;6.07;;;3.08;;
37647;SDS011;23490;53.656;10.076;2022-08-02T23:25:09;3.42;;;2.75;;
37647;SDS011;23490;53.656;10.076;2022-08-02T23:27:34;6.82;;;3.13;;
37647;SDS011;23490;53.656;10.076;2022-08-02T23:30:00;7.30;;;3.08;;
37647;SDS011;23490;53.656;10.076;2022-08-02T23:32:26;4.45;;;3.00;;
37647;SDS011;23490;53.656;10.076;2022-08-02T23:34:52;4.90;;;3.28;;
37647;SDS011;23490;53.656;10.076;2022-08-02T23:37:18;6.88;;;3.28;;
37647;SDS011;23490;53.656;10.076;2022-08-02T23:39:44;6.47;;;2.97;;
37647;SDS011;23490;53.656;10.076;2022-08-02T23:42:09;4.40;;;3.28;;
37647;SDS011;23490;53.656;10.076;2022-08-02T23:44:35;4.63;;;3.38;;
37647;SDS011;23490;53.656;10.076;2022-08-02T23:47:00;6.50;;;3.50;;
37647;SDS011;23490;53.656;10.076;2022-08-02T23:49:26;5.75;;;3.30;;
37647;SDS011;23490;53.656;10.076;2022-08-02T23:51:52;7.90;;;3.78;;
37647;SDS011;23490;53.656;10.076;2022-08-02T23:54:19;5.78;;;3.20;;
37647;SDS011;23490;53.656;10.076;2022-08-02T23:56:45;4.10;;;3.40;;
37647;SDS011;23490;53.656;10.076;2022-08-02T23:59:10;5.70;;;3.40;;
